Ozone, Tennessee
Current Conditions -  °F | °C
As of 8:53 AM on Wednesday 22 Oct 2014 (Local Time) from KCSV Reporting Station
Broken Clouds Broken Clouds  
Wind Chill:   Ceiling: 1500
Heat Index:   Visibility: 10mi
Dew Point:   Wind: 13mph
Humidity: 76%   Direction: 50°NE
Pressure: 30.21"   Gusts: 17mph
Location:  35.88°N, 84.81°W
Report Text: KCSV 221353Z AUTO 05011G15KT 10SM SCT011 BKN015 08/04 A3021 RMK AO2 SLP230 T00780039
Loading
Personal Weather Stations






























Interactive Weather Map
Tropical Storm Tracking
New forecast layout! Learn more

10-Day Weather Forecast

Advertisements
Track Severe Weather on mobile